sensor_id;sensor_type;location;lat;lon;timestamp;temperature;humidity
64501;DHT22;50874;24.150;-110.320;2024-02-21T00:01:15;32.00;42.10
64501;DHT22;50874;24.150;-110.320;2024-02-21T00:03:42;31.90;42.20
64501;DHT22;50874;24.150;-110.320;2024-02-21T00:06:09;31.70;42.90
64501;DHT22;50874;24.150;-110.320;2024-02-21T00:08:35;31.50;43.00
64501;DHT22;50874;24.150;-110.320;2024-02-21T00:11:01;31.50;43.00
64501;DHT22;50874;24.150;-110.320;2024-02-21T00:13:28;31.40;43.00
64501;DHT22;50874;24.150;-110.320;2024-02-21T00:15:55;31.40;43.20
64501;DHT22;50874;24.150;-110.320;2024-02-21T00:18:22;31.30;43.00
64501;DHT22;50874;24.150;-110.320;2024-02-21T00:20:48;31.30;43.40
64501;DHT22;50874;24.150;-110.320;2024-02-21T00:23:15;31.20;43.50
64501;DHT22;50874;24.150;-110.320;2024-02-21T00:25:41;31.00;43.60
64501;DHT22;50874;24.150;-110.320;2024-02-21T00:28:08;30.90;44.00
64501;DHT22;50874;24.150;-110.320;2024-02-21T00:30:34;30.80;44.50
64501;DHT22;50874;24.150;-110.320;2024-02-21T00:33:01;30.70;44.90
64501;DHT22;50874;24.150;-110.320;2024-02-21T00:35:27;30.70;45.50
64501;DHT22;50874;24.150;-110.320;2024-02-21T00:37:53;30.70;44.90
64501;DHT22;50874;24.150;-110.320;2024-02-21T00:40:20;30.60;45.40
64501;DHT22;50874;24.150;-110.320;2024-02-21T00:42:48;30.40;46.30
64501;DHT22;50874;24.150;-110.320;2024-02-21T00:45:14;30.30;46.40
64501;DHT22;50874;24.150;-110.320;2024-02-21T00:47:41;30.10;46.80
64501;DHT22;50874;24.150;-110.320;2024-02-21T00:50:08;30.00;47.50
64501;DHT22;50874;24.150;-110.320;2024-02-21T00:52:35;29.90;48.40
64501;DHT22;50874;24.150;-110.320;2024-02-21T00:55:01;29.80;49.40
64501;DHT22;50874;24.150;-110.320;2024-02-21T00:57:28;29.60;50.70
64501;DHT22;50874;24.150;-110.320;2024-02-21T00:59:54;29.40;51.70
64501;DHT22;50874;24.150;-110.320;2024-02-21T01:02:21;29.30;52.80
64501;DHT22;50874;24.150;-110.320;2024-02-21T01:04:47;29.10;53.40
64501;DHT22;50874;24.150;-110.320;2024-02-21T01:07:14;29.00;54.10
64501;DHT22;50874;24.150;-110.320;2024-02-21T01:09:40;28.80;54.80
64501;DHT22;50874;24.150;-110.320;2024-02-21T01:12:07;28.60;55.40
64501;DHT22;50874;24.150;-110.320;2024-02-21T01:14:33;28.40;56.50
64501;DHT22;50874;24.150;-110.320;2024-02-21T01:17:00;28.40;57.30
64501;DHT22;50874;24.150;-110.320;2024-02-21T01:19:27;28.20;58.10
64501;DHT22;50874;24.150;-110.320;2024-02-21T01:21:53;28.10;58.70
64501;DHT22;50874;24.150;-110.320;2024-02-21T01:24:20;28.10;59.30
64501;DHT22;50874;24.150;-110.320;2024-02-21T01:26:46;28.00;60.00
64501;DHT22;50874;24.150;-110.320;2024-02-21T01:29:13;27.90;60.90
64501;DHT22;50874;24.150;-110.320;2024-02-21T01:31:39;27.70;63.00
64501;DHT22;50874;24.150;-110.320;2024-02-21T01:34:06;27.50;65.00
64501;DHT22;50874;24.150;-110.320;2024-02-21T01:36:32;27.30;66.50
64501;DHT22;50874;24.150;-110.320;2024-02-21T01:38:58;27.10;68.30
64501;DHT22;50874;24.150;-110.320;2024-02-21T01:41:25;26.90;69.70
64501;DHT22;50874;24.150;-110.320;2024-02-21T01:43:51;26.90;71.10
64501;DHT22;50874;24.150;-110.320;2024-02-21T01:46:18;26.80;73.10
64501;DHT22;50874;24.150;-110.320;2024-02-21T01:48:45;26.60;74.70
64501;DHT22;50874;24.150;-110.320;2024-02-21T01:51:12;26.50;75.70
64501;DHT22;50874;24.150;-110.320;2024-02-21T01:53:43;26.40;77.20
64501;DHT22;50874;24.150;-110.320;2024-02-21T01:56:12;26.20;79.30
64501;DHT22;50874;24.150;-110.320;2024-02-21T01:58:41;26.10;80.50
64501;DHT22;50874;24.150;-110.320;2024-02-21T02:01:08;26.10;81.00
64501;DHT22;50874;24.150;-110.320;2024-02-21T02:03:35;26.00;81.40
64501;DHT22;50874;24.150;-110.320;2024-02-21T02:06:04;25.90;83.00
64501;DHT22;50874;24.150;-110.320;2024-02-21T02:08:31;25.90;83.90
64501;DHT22;50874;24.150;-110.320;2024-02-21T02:10:59;25.70;85.60
64501;DHT22;50874;24.150;-110.320;2024-02-21T02:13:26;25.60;88.00
64501;DHT22;50874;24.150;-110.320;2024-02-21T02:15:52;25.50;90.00
64501;DHT22;50874;24.150;-110.320;2024-02-21T02:18:20;25.40;91.00
64501;DHT22;50874;24.150;-110.320;2024-02-21T02:20:47;25.30;91.60
64501;DHT22;50874;24.150;-110.320;2024-02-21T02:23:30;25.20;91.90
64501;DHT22;50874;24.150;-110.320;2024-02-21T02:25:59;25.20;92.20
64501;DHT22;50874;24.150;-110.320;2024-02-21T02:28:29;25.10;92.60
64501;DHT22;50874;24.150;-110.320;2024-02-21T02:30:55;25.10;93.10
64501;DHT22;50874;24.150;-110.320;2024-02-21T02:33:22;24.90;94.10
64501;DHT22;50874;24.150;-110.320;2024-02-21T02:35:48;24.80;94.90
64501;DHT22;50874;24.150;-110.320;2024-02-21T02:38:15;24.80;95.40
64501;DHT22;50874;24.150;-110.320;2024-02-21T02:40:41;24.70;96.00
64501;DHT22;50874;24.150;-110.320;2024-02-21T02:43:09;24.60;96.70
64501;DHT22;50874;24.150;-110.320;2024-02-21T02:45:35;24.50;97.90
64501;DHT22;50874;24.150;-110.320;2024-02-21T02:48:02;24.30;98.60
64501;DHT22;50874;24.150;-110.320;2024-02-21T02:50:28;24.20;99.20
64501;DHT22;50874;24.150;-110.320;2024-02-21T02:52:55;24.10;99.70
64501;DHT22;50874;24.150;-110.320;2024-02-21T02:55:22;24.00;99.90
64501;DHT22;50874;24.150;-110.320;2024-02-21T02:57:48;23.90;99.90
64501;DHT22;50874;24.150;-110.320;2024-02-21T03:00:15;23.80;99.90
64501;DHT22;50874;24.150;-110.320;2024-02-21T03:02:44;23.70;99.90
64501;DHT22;50874;24.150;-110.320;2024-02-21T03:05:17;23.60;99.90
64501;DHT22;50874;24.150;-110.320;2024-02-21T03:07:44;23.60;99.90
64501;DHT22;50874;24.150;-110.320;2024-02-21T03:10:11;23.60;99.50
64501;DHT22;50874;24.150;-110.320;2024-02-21T03:12:38;23.50;99.90
64501;DHT22;50874;24.150;-110.320;2024-02-21T03:15:05;23.50;99.90
64501;DHT22;50874;24.150;-110.320;2024-02-21T03:17:32;23.40;99.90
64501;DHT22;50874;24.150;-110.320;2024-02-21T03:20:03;23.40;99.90
64501;DHT22;50874;24.150;-110.320;2024-02-21T03:22:36;23.40;99.90
64501;DHT22;50874;24.150;-110.320;2024-02-21T03:25:03;23.30;99.90
64501;DHT22;50874;24.150;-110.320;2024-02-21T03:27:30;23.20;99.90
64501;DHT22;50874;24.150;-110.320;2024-02-21T03:29:56;23.20;99.90
64501;DHT22;50874;24.150;-110.320;2024-02-21T03:32:22;23.20;99.90
64501;DHT22;50874;24.150;-110.320;2024-02-21T03:34:49;23.10;99.90
64501;DHT22;50874;24.150;-110.320;2024-02-21T03:37:16;23.10;99.90
64501;DHT22;50874;24.150;-110.320;2024-02-21T03:39:42;22.90;99.90
64501;DHT22;50874;24.150;-110.320;2024-02-21T03:42:09;22.90;99.90
64501;DHT22;50874;24.150;-110.320;2024-02-21T03:44:36;22.90;99.90
64501;DHT22;50874;24.150;-110.320;2024-02-21T03:47:02;22.80;99.90
64501;DHT22;50874;24.150;-110.320;2024-02-21T03:49:29;22.80;99.90
64501;DHT22;50874;24.150;-110.320;2024-02-21T03:51:56;22.70;99.90
64501;DHT22;50874;24.150;-110.320;2024-02-21T03:54:22;22.70;99.90
64501;DHT22;50874;24.150;-110.320;2024-02-21T03:56:49;22.70;99.90
64501;DHT22;50874;24.150;-110.320;2024-02-21T03:59:15;22.70;99.90
64501;DHT22;50874;24.150;-110.320;2024-02-21T04:01:42;22.50;99.90
64501;DHT22;50874;24.150;-110.320;2024-02-21T04:04:09;22.30;99.90
64501;DHT22;50874;24.150;-110.320;2024-02-21T04:06:36;22.10;99.90
64501;DHT22;50874;24.150;-110.320;2024-02-21T04:09:02;22.00;99.90
64501;DHT22;50874;24.150;-110.320;2024-02-21T04:11:29;21.80;99.90
64501;DHT22;50874;24.150;-110.320;2024-02-21T04:13:56;21.80;99.90
64501;DHT22;50874;24.150;-110.320;2024-02-21T04:16:22;21.50;99.90
64501;DHT22;50874;24.150;-110.320;2024-02-21T04:18:48;21.50;99.90
64501;DHT22;50874;24.150;-110.320;2024-02-21T04:21:17;21.30;99.90
64501;DHT22;50874;24.150;-110.320;2024-02-21T04:23:43;21.30;99.90
64501;DHT22;50874;24.150;-110.320;2024-02-21T04:26:10;21.20;99.90
64501;DHT22;50874;24.150;-110.320;2024-02-21T04:28:36;21.10;99.90
64501;DHT22;50874;24.150;-110.320;2024-02-21T04:31:03;21.00;99.90
64501;DHT22;50874;24.150;-110.320;2024-02-21T04:33:29;21.00;99.90
64501;DHT22;50874;24.150;-110.320;2024-02-21T04:35:56;21.00;99.90
64501;DHT22;50874;24.150;-110.320;2024-02-21T04:38:24;20.90;99.90
64501;DHT22;50874;24.150;-110.320;2024-02-21T04:40:51;20.90;99.90
64501;DHT22;50874;24.150;-110.320;2024-02-21T04:43:17;20.80;99.90
64501;DHT22;50874;24.150;-110.320;2024-02-21T04:45:44;20.80;99.90
64501;DHT22;50874;24.150;-110.320;2024-02-21T04:48:10;20.80;99.90
64501;DHT22;50874;24.150;-110.320;2024-02-21T04:50:37;20.70;99.90
64501;DHT22;50874;24.150;-110.320;2024-02-21T04:53:03;20.60;99.90
64501;DHT22;50874;24.150;-110.320;2024-02-21T04:55:30;20.50;99.90
64501;DHT22;50874;24.150;-110.320;2024-02-21T04:57:56;20.50;99.90
64501;DHT22;50874;24.150;-110.320;2024-02-21T05:00:23;20.40;99.90
64501;DHT22;50874;24.150;-110.320;2024-02-21T05:02:49;20.40;99.90
64501;DHT22;50874;24.150;-110.320;2024-02-21T05:05:16;20.40;99.90
64501;DHT22;50874;24.150;-110.320;2024-02-21T05:07:43;20.30;99.90
64501;DHT22;50874;24.150;-110.320;2024-02-21T05:10:09;20.20;99.90
64501;DHT22;50874;24.150;-110.320;2024-02-21T05:12:36;20.20;99.90
64501;DHT22;50874;24.150;-110.320;2024-02-21T05:15:03;20.20;99.90
64501;DHT22;50874;24.150;-110.320;2024-02-21T05:17:29;20.10;99.90
64501;DHT22;50874;24.150;-110.320;2024-02-21T05:19:56;20.10;99.90
64501;DHT22;50874;24.150;-110.320;2024-02-21T05:22:22;20.00;99.90
64501;DHT22;50874;24.150;-110.320;2024-02-21T05:24:49;20.00;99.90
64501;DHT22;50874;24.150;-110.320;2024-02-21T05:27:15;20.00;99.90
64501;DHT22;50874;24.150;-110.320;2024-02-21T05:29:42;20.10;99.90
64501;DHT22;50874;24.150;-110.320;2024-02-21T05:32:08;20.20;99.90
64501;DHT22;50874;24.150;-110.320;2024-02-21T05:34:34;20.20;99.90
64501;DHT22;50874;24.150;-110.320;2024-02-21T05:37:01;20.20;99.90
64501;DHT22;50874;24.150;-110.320;2024-02-21T05:39:27;20.10;99.90
64501;DHT22;50874;24.150;-110.320;2024-02-21T05:41:55;20.00;99.90
64501;DHT22;50874;24.150;-110.320;2024-02-21T05:44:21;20.00;99.90
64501;DHT22;50874;24.150;-110.320;2024-02-21T05:46:48;19.80;99.90
64501;DHT22;50874;24.150;-110.320;2024-02-21T05:49:14;19.70;99.90
64501;DHT22;50874;24.150;-110.320;2024-02-21T05:51:41;19.70;99.90
64501;DHT22;50874;24.150;-110.320;2024-02-21T05:54:07;19.50;99.90
64501;DHT22;50874;24.150;-110.320;2024-02-21T05:56:34;19.50;99.90
64501;DHT22;50874;24.150;-110.320;2024-02-21T05:59:00;19.50;99.90
64501;DHT22;50874;24.150;-110.320;2024-02-21T06:01:27;19.40;99.90
64501;DHT22;50874;24.150;-110.320;2024-02-21T06:03:53;19.30;99.90
64501;DHT22;50874;24.150;-110.320;2024-02-21T06:06:20;19.30;99.90
64501;DHT22;50874;24.150;-110.320;2024-02-21T06:08:48;19.20;99.90
64501;DHT22;50874;24.150;-110.320;2024-02-21T06:11:14;19.10;99.90
64501;DHT22;50874;24.150;-110.320;2024-02-21T06:13:41;19.10;99.90
64501;DHT22;50874;24.150;-110.320;2024-02-21T06:16:07;19.10;99.90
64501;DHT22;50874;24.150;-110.320;2024-02-21T06:18:36;19.00;99.90
64501;DHT22;50874;24.150;-110.320;2024-02-21T06:21:05;19.00;99.90
64501;DHT22;50874;24.150;-110.320;2024-02-21T06:23:32;19.00;99.90
64501;DHT22;50874;24.150;-110.320;2024-02-21T06:25:58;18.90;99.90
64501;DHT22;50874;24.150;-110.320;2024-02-21T06:28:25;18.90;99.90
64501;DHT22;50874;24.150;-110.320;2024-02-21T06:30:51;18.80;99.90
64501;DHT22;50874;24.150;-110.320;2024-02-21T06:33:18;18.80;99.90
64501;DHT22;50874;24.150;-110.320;2024-02-21T06:35:48;18.70;99.90
64501;DHT22;50874;24.150;-110.320;2024-02-21T06:38:17;18.70;99.90
64501;DHT22;50874;24.150;-110.320;2024-02-21T06:40:43;18.70;99.90
64501;DHT22;50874;24.150;-110.320;2024-02-21T06:43:17;18.70;99.90
64501;DHT22;50874;24.150;-110.320;2024-02-21T06:45:43;18.70;99.90
64501;DHT22;50874;24.150;-110.320;2024-02-21T06:48:13;18.70;99.90
64501;DHT22;50874;24.150;-110.320;2024-02-21T06:50:40;18.60;99.90
64501;DHT22;50874;24.150;-110.320;2024-02-21T06:53:06;18.60;99.90
64501;DHT22;50874;24.150;-110.320;2024-02-21T06:55:33;18.60;99.90
64501;DHT22;50874;24.150;-110.320;2024-02-21T06:57:59;18.60;99.90
64501;DHT22;50874;24.150;-110.320;2024-02-21T07:00:26;18.60;99.90
64501;DHT22;50874;24.150;-110.320;2024-02-21T07:02:52;18.50;99.90
64501;DHT22;50874;24.150;-110.320;2024-02-21T07:05:19;18.50;99.90
64501;DHT22;50874;24.150;-110.320;2024-02-21T07:07:45;18.50;99.90
64501;DHT22;50874;24.150;-110.320;2024-02-21T07:10:12;18.50;99.90
64501;DHT22;50874;24.150;-110.320;2024-02-21T07:12:38;18.40;99.90
64501;DHT22;50874;24.150;-110.320;2024-02-21T07:15:08;18.40;99.90
64501;DHT22;50874;24.150;-110.320;2024-02-21T07:17:34;18.40;99.90
64501;DHT22;50874;24.150;-110.320;2024-02-21T07:20:00;18.30;99.90
64501;DHT22;50874;24.150;-110.320;2024-02-21T07:22:27;18.30;99.90
64501;DHT22;50874;24.150;-110.320;2024-02-21T07:24:54;18.30;99.90
64501;DHT22;50874;24.150;-110.320;2024-02-21T07:27:20;18.20;99.90
64501;DHT22;50874;24.150;-110.320;2024-02-21T07:29:46;18.20;99.90
64501;DHT22;50874;24.150;-110.320;2024-02-21T07:32:15;18.10;99.90
64501;DHT22;50874;24.150;-110.320;2024-02-21T07:34:42;18.00;99.90
64501;DHT22;50874;24.150;-110.320;2024-02-21T07:37:08;18.00;99.90
64501;DHT22;50874;24.150;-110.320;2024-02-21T07:39:38;17.90;99.90
64501;DHT22;50874;24.150;-110.320;2024-02-21T07:42:05;17.70;99.90
64501;DHT22;50874;24.150;-110.320;2024-02-21T07:44:32;17.60;99.90
64501;DHT22;50874;24.150;-110.320;2024-02-21T07:46:58;17.50;99.90
64501;DHT22;50874;24.150;-110.320;2024-02-21T07:49:25;17.40;99.90
64501;DHT22;50874;24.150;-110.320;2024-02-21T07:51:51;17.30;99.90
64501;DHT22;50874;24.150;-110.320;2024-02-21T07:54:18;17.20;99.90
64501;DHT22;50874;24.150;-110.320;2024-02-21T07:56:45;17.10;99.90
64501;DHT22;50874;24.150;-110.320;2024-02-21T07:59:11;17.00;99.90
64501;DHT22;50874;24.150;-110.320;2024-02-21T08:01:40;16.90;99.90
64501;DHT22;50874;24.150;-110.320;2024-02-21T08:04:07;16.80;99.90
64501;DHT22;50874;24.150;-110.320;2024-02-21T08:06:34;16.80;99.90
64501;DHT22;50874;24.150;-110.320;2024-02-21T08:09:01;16.70;99.90
64501;DHT22;50874;24.150;-110.320;2024-02-21T08:11:27;16.70;99.90
64501;DHT22;50874;24.150;-110.320;2024-02-21T08:13:54;16.80;99.90
64501;DHT22;50874;24.150;-110.320;2024-02-21T08:16:20;16.70;99.90
64501;DHT22;50874;24.150;-110.320;2024-02-21T08:18:47;16.70;99.90
64501;DHT22;50874;24.150;-110.320;2024-02-21T08:21:13;16.80;99.90
64501;DHT22;50874;24.150;-110.320;2024-02-21T08:23:40;16.80;99.90
64501;DHT22;50874;24.150;-110.320;2024-02-21T08:26:07;16.80;99.90
64501;DHT22;50874;24.150;-110.320;2024-02-21T08:28:33;16.90;99.90
64501;DHT22;50874;24.150;-110.320;2024-02-21T08:30:59;16.80;99.90
64501;DHT22;50874;24.150;-110.320;2024-02-21T08:33:26;16.60;99.90
64501;DHT22;50874;24.150;-110.320;2024-02-21T08:35:53;16.60;99.90
64501;DHT22;50874;24.150;-110.320;2024-02-21T08:38:20;16.50;99.90
64501;DHT22;50874;24.150;-110.320;2024-02-21T08:40:46;16.60;99.90
64501;DHT22;50874;24.150;-110.320;2024-02-21T08:43:12;16.60;99.90
64501;DHT22;50874;24.150;-110.320;2024-02-21T08:45:39;16.60;99.90
64501;DHT22;50874;24.150;-110.320;2024-02-21T08:48:06;16.50;99.90
64501;DHT22;50874;24.150;-110.320;2024-02-21T08:50:32;16.50;99.90
64501;DHT22;50874;24.150;-110.320;2024-02-21T08:52:59;16.50;99.90
64501;DHT22;50874;24.150;-110.320;2024-02-21T08:55:25;16.50;99.90
64501;DHT22;50874;24.150;-110.320;2024-02-21T08:57:52;16.40;99.90
64501;DHT22;50874;24.150;-110.320;2024-02-21T09:00:19;16.30;99.90
64501;DHT22;50874;24.150;-110.320;2024-02-21T09:02:49;16.30;99.90
64501;DHT22;50874;24.150;-110.320;2024-02-21T09:05:16;16.10;99.90
64501;DHT22;50874;24.150;-110.320;2024-02-21T09:07:42;16.10;99.90
64501;DHT22;50874;24.150;-110.320;2024-02-21T09:10:09;16.00;99.90
64501;DHT22;50874;24.150;-110.320;2024-02-21T09:12:36;15.90;99.90
64501;DHT22;50874;24.150;-110.320;2024-02-21T09:15:02;15.90;99.90
64501;DHT22;50874;24.150;-110.320;2024-02-21T09:17:29;15.80;99.90
64501;DHT22;50874;24.150;-110.320;2024-02-21T09:19:56;15.90;99.90
64501;DHT22;50874;24.150;-110.320;2024-02-21T09:22:25;15.90;99.90
64501;DHT22;50874;24.150;-110.320;2024-02-21T09:24:51;15.90;99.90
64501;DHT22;50874;24.150;-110.320;2024-02-21T09:27:17;15.90;99.90
64501;DHT22;50874;24.150;-110.320;2024-02-21T09:29:44;15.90;99.90
64501;DHT22;50874;24.150;-110.320;2024-02-21T09:32:10;15.90;99.90
64501;DHT22;50874;24.150;-110.320;2024-02-21T09:34:38;15.80;99.90
64501;DHT22;50874;24.150;-110.320;2024-02-21T09:37:05;15.80;99.90
64501;DHT22;50874;24.150;-110.320;2024-02-21T09:39:32;15.80;99.90
64501;DHT22;50874;24.150;-110.320;2024-02-21T09:42:08;15.70;99.90
64501;DHT22;50874;24.150;-110.320;2024-02-21T09:44:37;15.70;99.90
64501;DHT22;50874;24.150;-110.320;2024-02-21T09:47:22;15.70;99.90
64501;DHT22;50874;24.150;-110.320;2024-02-21T09:49:51;15.70;99.90
64501;DHT22;50874;24.150;-110.320;2024-02-21T09:52:19;15.60;99.90
64501;DHT22;50874;24.150;-110.320;2024-02-21T09:54:47;15.50;99.90
64501;DHT22;50874;24.150;-110.320;2024-02-21T09:57:15;15.40;99.90
64501;DHT22;50874;24.150;-110.320;2024-02-21T09:59:42;15.30;99.90
64501;DHT22;50874;24.150;-110.320;2024-02-21T10:02:09;15.30;99.90
64501;DHT22;50874;24.150;-110.320;2024-02-21T10:04:37;15.20;99.90
64501;DHT22;50874;24.150;-110.320;2024-02-21T10:07:05;15.20;99.90
64501;DHT22;50874;24.150;-110.320;2024-02-21T10:09:33;15.10;99.90
64501;DHT22;50874;24.150;-110.320;2024-02-21T10:12:12;15.10;99.90
64501;DHT22;50874;24.150;-110.320;2024-02-21T10:14:39;15.10;99.90
64501;DHT22;50874;24.150;-110.320;2024-02-21T10:17:05;15.10;99.90
64501;DHT22;50874;24.150;-110.320;2024-02-21T10:19:35;15.10;99.90
64501;DHT22;50874;24.150;-110.320;2024-02-21T10:22:04;15.10;99.90
64501;DHT22;50874;24.150;-110.320;2024-02-21T10:24:31;15.10;99.90
64501;DHT22;50874;24.150;-110.320;2024-02-21T10:27:05;15.10;99.90
64501;DHT22;50874;24.150;-110.320;2024-02-21T10:29:35;15.20;99.90
64501;DHT22;50874;24.150;-110.320;2024-02-21T10:32:19;15.10;99.90
64501;DHT22;50874;24.150;-110.320;2024-02-21T10:34:46;15.20;99.90
64501;DHT22;50874;24.150;-110.320;2024-02-21T10:37:17;15.20;99.90
64501;DHT22;50874;24.150;-110.320;2024-02-21T10:39:44;15.20;99.90
64501;DHT22;50874;24.150;-110.320;2024-02-21T10:42:14;15.30;99.90
64501;DHT22;50874;24.150;-110.320;2024-02-21T10:44:45;15.30;99.90
64501;DHT22;50874;24.150;-110.320;2024-02-21T10:47:12;15.30;99.90
64501;DHT22;50874;24.150;-110.320;2024-02-21T10:49:44;15.30;99.90
64501;DHT22;50874;24.150;-110.320;2024-02-21T10:52:17;15.30;99.90
64501;DHT22;50874;24.150;-110.320;2024-02-21T10:54:55;15.30;99.90
64501;DHT22;50874;24.150;-110.320;2024-02-21T10:57:23;15.30;99.90
64501;DHT22;50874;24.150;-110.320;2024-02-21T10:59:50;15.20;99.90
64501;DHT22;50874;24.150;-110.320;2024-02-21T11:02:17;15.20;99.90
64501;DHT22;50874;24.150;-110.320;2024-02-21T11:04:44;15.20;99.90
64501;DHT22;50874;24.150;-110.320;2024-02-21T11:07:12;15.10;99.90
64501;DHT22;50874;24.150;-110.320;2024-02-21T11:09:39;15.10;99.90
64501;DHT22;50874;24.150;-110.320;2024-02-21T11:12:06;15.10;99.90
64501;DHT22;50874;24.150;-110.320;2024-02-21T11:14:33;15.10;99.90
64501;DHT22;50874;24.150;-110.320;2024-02-21T11:17:03;15.10;99.90
64501;DHT22;50874;24.150;-110.320;2024-02-21T11:19:40;15.10;99.90
64501;DHT22;50874;24.150;-110.320;2024-02-21T11:22:15;15.10;99.90
64501;DHT22;50874;24.150;-110.320;2024-02-21T11:24:44;15.20;99.90
64501;DHT22;50874;24.150;-110.320;2024-02-21T11:27:16;15.10;99.90
64501;DHT22;50874;24.150;-110.320;2024-02-21T11:29:49;15.10;99.90
64501;DHT22;50874;24.150;-110.320;2024-02-21T11:32:21;15.00;99.90
64501;DHT22;50874;24.150;-110.320;2024-02-21T11:34:58;15.00;99.90
64501;DHT22;50874;24.150;-110.320;2024-02-21T11:37:31;14.90;99.90
64501;DHT22;50874;24.150;-110.320;2024-02-21T11:40:03;14.90;99.90
64501;DHT22;50874;24.150;-110.320;2024-02-21T11:42:30;14.80;99.90
64501;DHT22;50874;24.150;-110.320;2024-02-21T11:44:57;14.80;99.90
64501;DHT22;50874;24.150;-110.320;2024-02-21T11:47:24;14.70;99.90
64501;DHT22;50874;24.150;-110.320;2024-02-21T11:49:51;14.70;99.90
64501;DHT22;50874;24.150;-110.320;2024-02-21T11:52:24;14.70;99.90
64501;DHT22;50874;24.150;-110.320;2024-02-21T11:54:52;14.60;99.90
64501;DHT22;50874;24.150;-110.320;2024-02-21T11:57:19;14.60;99.90
64501;DHT22;50874;24.150;-110.320;2024-02-21T11:59:46;14.60;99.90
64501;DHT22;50874;24.150;-110.320;2024-02-21T12:02:14;14.60;99.90
64501;DHT22;50874;24.150;-110.320;2024-02-21T12:04:41;14.60;99.90
64501;DHT22;50874;24.150;-110.320;2024-02-21T12:07:08;14.60;99.90
64501;DHT22;50874;24.150;-110.320;2024-02-21T12:09:35;14.60;99.90
64501;DHT22;50874;24.150;-110.320;2024-02-21T12:12:03;14.50;99.90
64501;DHT22;50874;24.150;-110.320;2024-02-21T12:14:32;14.50;99.90
64501;DHT22;50874;24.150;-110.320;2024-02-21T12:16:59;14.50;99.90
64501;DHT22;50874;24.150;-110.320;2024-02-21T12:19:30;14.50;99.90
64501;DHT22;50874;24.150;-110.320;2024-02-21T12:21:58;14.40;99.90
64501;DHT22;50874;24.150;-110.320;2024-02-21T12:24:26;14.40;99.90
64501;DHT22;50874;24.150;-110.320;2024-02-21T12:26:54;14.40;99.90
64501;DHT22;50874;24.150;-110.320;2024-02-21T12:29:21;14.40;99.90
64501;DHT22;50874;24.150;-110.320;2024-02-21T12:31:48;14.40;99.90
64501;DHT22;50874;24.150;-110.320;2024-02-21T12:34:15;14.30;99.90
64501;DHT22;50874;24.150;-110.320;2024-02-21T12:36:43;14.40;99.90
64501;DHT22;50874;24.150;-110.320;2024-02-21T12:39:11;14.30;99.90
64501;DHT22;50874;24.150;-110.320;2024-02-21T12:41:38;14.30;99.90
64501;DHT22;50874;24.150;-110.320;2024-02-21T12:44:09;14.30;99.90
64501;DHT22;50874;24.150;-110.320;2024-02-21T12:46:39;14.20;99.90
64501;DHT22;50874;24.150;-110.320;2024-02-21T12:49:06;14.20;99.90
64501;DHT22;50874;24.150;-110.320;2024-02-21T12:51:36;14.10;99.90
64501;DHT22;50874;24.150;-110.320;2024-02-21T12:54:03;14.10;99.90
64501;DHT22;50874;24.150;-110.320;2024-02-21T12:56:30;14.00;99.90
64501;DHT22;50874;24.150;-110.320;2024-02-21T12:58:57;13.90;99.90
64501;DHT22;50874;24.150;-110.320;2024-02-21T13:01:24;13.80;99.90
64501;DHT22;50874;24.150;-110.320;2024-02-21T13:03:50;13.80;99.90
64501;DHT22;50874;24.150;-110.320;2024-02-21T13:06:17;13.80;99.90
64501;DHT22;50874;24.150;-110.320;2024-02-21T13:08:45;13.80;99.90
64501;DHT22;50874;24.150;-110.320;2024-02-21T13:11:12;13.80;99.90
64501;DHT22;50874;24.150;-110.320;2024-02-21T13:13:39;13.80;99.90
64501;DHT22;50874;24.150;-110.320;2024-02-21T13:16:06;13.80;99.90
64501;DHT22;50874;24.150;-110.320;2024-02-21T13:18:34;13.80;99.90
64501;DHT22;50874;24.150;-110.320;2024-02-21T13:21:01;13.80;99.90
64501;DHT22;50874;24.150;-110.320;2024-02-21T13:23:28;13.80;99.90
64501;DHT22;50874;24.150;-110.320;2024-02-21T13:25:54;13.80;99.90
64501;DHT22;50874;24.150;-110.320;2024-02-21T13:28:21;13.80;99.90
64501;DHT22;50874;24.150;-110.320;2024-02-21T13:30:47;13.90;99.90
64501;DHT22;50874;24.150;-110.320;2024-02-21T13:33:14;14.00;99.90
64501;DHT22;50874;24.150;-110.320;2024-02-21T13:35:40;14.00;99.90
64501;DHT22;50874;24.150;-110.320;2024-02-21T13:38:07;14.00;99.90
64501;DHT22;50874;24.150;-110.320;2024-02-21T13:40:33;14.00;99.90
64501;DHT22;50874;24.150;-110.320;2024-02-21T13:43:00;14.00;99.90
64501;DHT22;50874;24.150;-110.320;2024-02-21T13:45:27;13.90;99.90
64501;DHT22;50874;24.150;-110.320;2024-02-21T13:47:53;13.90;99.90
64501;DHT22;50874;24.150;-110.320;2024-02-21T13:50:23;13.80;99.90
64501;DHT22;50874;24.150;-110.320;2024-02-21T13:52:50;13.80;99.90
64501;DHT22;50874;24.150;-110.320;2024-02-21T13:55:16;13.70;99.90
64501;DHT22;50874;24.150;-110.320;2024-02-21T13:57:43;13.70;99.90
64501;DHT22;50874;24.150;-110.320;2024-02-21T14:00:10;13.60;99.90
64501;DHT22;50874;24.150;-110.320;2024-02-21T14:02:37;13.60;99.90
64501;DHT22;50874;24.150;-110.320;2024-02-21T14:05:05;13.60;99.90
64501;DHT22;50874;24.150;-110.320;2024-02-21T14:07:32;13.50;99.90
64501;DHT22;50874;24.150;-110.320;2024-02-21T14:10:01;13.50;99.90
64501;DHT22;50874;24.150;-110.320;2024-02-21T14:12:29;13.50;99.90
64501;DHT22;50874;24.150;-110.320;2024-02-21T14:14:57;13.50;99.90
64501;DHT22;50874;24.150;-110.320;2024-02-21T14:17:24;13.50;99.90
64501;DHT22;50874;24.150;-110.320;2024-02-21T14:19:51;13.50;99.90
64501;DHT22;50874;24.150;-110.320;2024-02-21T14:22:17;13.50;99.90
64501;DHT22;50874;24.150;-110.320;2024-02-21T14:24:45;13.60;99.90
64501;DHT22;50874;24.150;-110.320;2024-02-21T14:27:12;13.70;99.90
64501;DHT22;50874;24.150;-110.320;2024-02-21T14:29:39;13.80;99.90
64501;DHT22;50874;24.150;-110.320;2024-02-21T14:32:05;13.90;99.90
64501;DHT22;50874;24.150;-110.320;2024-02-21T14:34:33;14.00;99.90
64501;DHT22;50874;24.150;-110.320;2024-02-21T14:36:59;14.20;99.90
64501;DHT22;50874;24.150;-110.320;2024-02-21T14:39:26;14.30;99.90
64501;DHT22;50874;24.150;-110.320;2024-02-21T14:41:54;14.50;99.90
64501;DHT22;50874;24.150;-110.320;2024-02-21T14:44:21;14.60;99.90
64501;DHT22;50874;24.150;-110.320;2024-02-21T14:46:47;14.80;99.90
64501;DHT22;50874;24.150;-110.320;2024-02-21T14:49:14;14.80;99.90